Temp: 12.3°C   Baro: 995.8mb
  Wind: 4.0mph   Dir: S (181°)
  Rain: 1.8mm (0.0mm/hr)
  Solar: 431W/m2  Hum: 86%
 
Bath Spa Weather Station Historical Data
Daily Summary for May 04, 2021 Units:  English    Metric   Both
Daily Weekly Monthly Yearly Custom
  High: Low: Average:
Temperature: 53.5 °F 41 °F 47.9 °F
Dew Point: 45.3 °F 36.2 °F 40.2 °F
Humidity: 89% 53.2% 73%
Wind Speed: 16.3mph 3.2mph 10.4mph
Wind Gust: 32mph - -
Wind- - WNW
Pressure: 29.75 in 29.39 in -
Precipitation: 0.03 in    
Historical Graphs
 
 
Tabular Data for May 04, 2021
Time Temperature Dew Point Pressure Wind Wind Speed Wind Gust Humidity Rainfall Rate (Hourly) solar
00:04 46.8 °F 44 °F 29.41 in WSW 10 mph 20 mph 86.8% 0.02 in 0 W/m2
00:09 46.5 °F 44.1 °F 29.41 in West 10.2 mph 19 mph 88.2% 0.02 in 0 W/m2
00:14 46.5 °F 44.3 °F 29.41 in West 12.2 mph 19 mph 89% 0.02 in 0 W/m2
00:19 46.7 °F 44.6 °F 29.41 in WSW 12.4 mph 21 mph 89% 0.02 in 0 W/m2
00:24 47 °F 44.9 °F 29.41 in West 13.8 mph 24 mph 89% 0.02 in 0 W/m2
00:29 47.4 °F 45.1 °F 29.41 in WSW 10.5 mph 26 mph 88.5% 0.02 in 0 W/m2
00:34 47.6 °F 45 °F 29.41 in WSW 12.5 mph 21 mph 88% 0.02 in 0 W/m2
00:39 47.7 °F 45.1 °F 29.40 in West 8.3 mph 20 mph 88% 0.02 in 0 W/m2
00:44 47.7 °F 45.1 °F 29.40 in West 10 mph 23 mph 88% 0.02 in 0 W/m2
00:49 47.8 °F 45 °F 29.40 in West 11.2 mph 25 mph 87.2% 0.02 in 0 W/m2
00:54 48 °F 45.1 °F 29.40 in WSW 7.4 mph 25 mph 87% 0.02 in 0 W/m2
00:59 48 °F 45.1 °F 29.40 in West 8.8 mph 21 mph 87% 0.02 in 0 W/m2
01:04 48.3 °F 45.3 °F 29.40 in West 12.4 mph 24 mph 86.2% 0.01 in 0 W/m2
01:09 48.6 °F 45.1 °F 29.40 in West 12.8 mph 26 mph 85% 0.00 in 0 W/m2
01:14 48.7 °F 45.1 °F 29.40 in West 12.2 mph 23 mph 84.4% 0.00 in 0 W/m2
01:19 48.7 °F 45 °F 29.40 in West 11.6 mph 25 mph 84% 0.00 in 0 W/m2
01:24 48.7 °F 45 °F 29.40 in WNW 10.8 mph 25 mph 84% 0.00 in 0 W/m2
01:29 48.8 °F 45 °F 29.40 in WNW 14.1 mph 32 mph 84% 0.00 in 0 W/m2
01:34 48.9 °F 44.8 °F 29.40 in WNW 10.7 mph 28 mph 83% 0.00 in 0 W/m2
01:39 48.7 °F 44.8 °F 29.40 in West 8.2 mph 20 mph 83% 0.00 in 0 W/m2
01:44 48.7 °F 44.8 °F 29.39 in West 13.2 mph 25 mph 83% 0.00 in 0 W/m2
01:49 48.7 °F 44.8 °F 29.40 in West 8.2 mph 16 mph 83.2% 0.00 in 0 W/m2
01:54 48.7 °F 44.9 °F 29.40 in West 13.4 mph 29 mph 84% 0.00 in 0 W/m2
01:59 48.6 °F 44.8 °F 29.40 in WNW 7.8 mph 29 mph 84% 0.00 in 0 W/m2
02:04 48.6 °F 45 °F 29.40 in West 11 mph 19 mph 84.8% 0.00 in 0 W/m2
02:09 48.4 °F 45 °F 29.41 in WNW 16.2 mph 28 mph 85% 0.00 in 0 W/m2
02:14 48.6 °F 45.1 °F 29.41 in West 9.8 mph 27 mph 85% 0.00 in 0 W/m2
02:19 48.4 °F 44.6 °F 29.41 in WNW 10.6 mph 19 mph 84% 0.00 in 0 W/m2
02:24 48.6 °F 44.8 °F 29.41 in West 13.2 mph 27 mph 84% 0.00 in 0 W/m2
02:29 48.6 °F 44.8 °F 29.41 in West 10.8 mph 21 mph 84% 0.00 in 0 W/m2
02:34 48.5 °F 44.6 °F 29.41 in WNW 12.4 mph 21 mph 83.6% 0.00 in 0 W/m2
02:39 48.6 °F 44.6 °F 29.41 in WNW 9.7 mph 25 mph 83% 0.00 in 0 W/m2
02:44 48.6 °F 44.6 °F 29.41 in West 12.6 mph 22 mph 83% 0.00 in 0 W/m2
02:49 48.5 °F 44.6 °F 29.41 in West 13 mph 23 mph 83.8% 0.00 in 0 W/m2
02:54 48.3 °F 44.5 °F 29.41 in WNW 12 mph 23 mph 84% 0.00 in 0 W/m2
02:59 48.1 °F 44.6 °F 29.41 in West 11.5 mph 17 mph 84.8% 0.00 in 0 W/m2
03:04 48 °F 44.6 °F 29.41 in West 10 mph 16 mph 85% 0.00 in 0 W/m2
03:09 48 °F 44.6 °F 29.41 in West 8.2 mph 18 mph 85% 0.00 in 0 W/m2
03:14 47.9 °F 44.6 °F 29.41 in WNW 8.8 mph 15 mph 85.4% 0.00 in 0 W/m2
03:19 47.7 °F 44.7 °F 29.41 in West 8.6 mph 22 mph 86% 0.00 in 0 W/m2
03:24 47.7 °F 44.7 °F 29.41 in West 12.2 mph 17 mph 86% 0.00 in 0 W/m2
03:29 47.8 °F 45 °F 29.41 in West 11.4 mph 21 mph 86.8% 0.00 in 0 W/m2
03:34 47.8 °F 45 °F 29.40 in West 10.8 mph 21 mph 87% 0.00 in 0 W/m2
03:39 47.8 °F 44.8 °F 29.40 in West 10.6 mph 17 mph 86% 0.00 in 0 W/m2
03:44 47.9 °F 44.9 °F 29.40 in West 12.8 mph 17 mph 86% 0.00 in 0 W/m2
03:49 47.7 °F 44.8 °F 29.41 in West 12.4 mph 24 mph 86.6% 0.01 in 0 W/m2
03:54 47.5 °F 44.8 °F 29.41 in WNW 16 mph 25 mph 87% 0.01 in 0 W/m2
03:59 47.3 °F 44.6 °F 29.41 in West 16.1 mph 25 mph 87% 0.01 in 0 W/m2
04:04 47.1 °F 44.4 °F 29.41 in WNW 13.8 mph 28 mph 87% 0.01 in 0 W/m2
04:09 47.1 °F 44.1 °F 29.41 in WNW 11.1 mph 21 mph 86% 0.01 in 0 W/m2
04:14 46.9 °F 43.8 °F 29.41 in WNW 12.5 mph 25 mph 85.6% 0.01 in 0 W/m2
04:19 46.7 °F 43 °F 29.42 in WNW 14.5 mph 26 mph 84.2% 0.01 in 0 W/m2
04:24 46.4 °F 42.3 °F 29.42 in WNW 12.8 mph 29 mph 82.4% 0.01 in 0 W/m2
04:29 46.2 °F 41.9 °F 29.42 in WNW 14.6 mph 29 mph 82% 0.01 in 0 W/m2
04:34 46.2 °F 41.9 °F 29.43 in West 12.4 mph 25 mph 82% 0.01 in 0 W/m2
04:39 46 °F 41.7 °F 29.44 in WNW 14.8 mph 24 mph 82% 0.01 in 0 W/m2
04:44 45.8 °F 41.6 °F 29.44 in West 10.5 mph 20 mph 82.5% 0.01 in 0 W/m2
04:49 45.5 °F 41.6 °F 29.44 in West 16 mph 27 mph 83.2% 0.00 in 0 W/m2
04:54 45 °F 41.5 °F 29.45 in WNW 12 mph 30 mph 84.6% 0.00 in 0 W/m2
04:59 44.6 °F 41.5 °F 29.46 in WNW 14 mph 25 mph 86% 0.02 in 0 W/m2
05:04 44.2 °F 41.5 °F 29.46 in WNW 11.5 mph 25 mph 87% 0.02 in 0 W/m2
05:09 44.1 °F 41.4 °F 29.46 in WNW 12.6 mph 27 mph 87% 0.02 in 0 W/m2
05:14 44.1 °F 41 °F 29.46 in WNW 12.1 mph 26 mph 86% 0.02 in 0 W/m2
05:19 44.2 °F 40.6 °F 29.46 in WNW 12.3 mph 26 mph 84% 0.02 in 0 W/m2
05:24 44.2 °F 40.3 °F 29.47 in WNW 10 mph 20 mph 83% 0.02 in 0 W/m2
05:29 44.2 °F 40.3 °F 29.47 in WNW 10.7 mph 17 mph 83% 0.02 in 0 W/m2
05:34 44.2 °F 40.1 °F 29.47 in WNW 8.2 mph 18 mph 82.4% 0.02 in 0 W/m2
05:39 44.2 °F 40.2 °F 29.47 in WNW 9.5 mph 16 mph 82.8% 0.02 in 0 W/m2
05:44 44.2 °F 40.2 °F 29.47 in WNW 13 mph 22 mph 82.6% 0.02 in 0 W/m2
05:49 44.4 °F 40.1 °F 29.47 in WNW 9.5 mph 19 mph 82% 0.02 in 5 W/m2
05:54 44.4 °F 40.1 °F 29.47 in WNW 8 mph 15 mph 82% 0.02 in 5 W/m2
05:59 44.6 °F 40.3 °F 29.48 in WNW 10.6 mph 17 mph 82% 0.01 in 11 W/m2
06:04 44.8 °F 40.5 °F 29.48 in WNW 10.3 mph 21 mph 82% 0.00 in 16 W/m2
06:09 44.8 °F 40.5 °F 29.48 in WNW 10.6 mph 21 mph 82% 0.00 in 16 W/m2
06:14 44.9 °F 40.6 °F 29.48 in West 9.7 mph 23 mph 82% 0.00 in 33 W/m2
06:19 45 °F 40.4 °F 29.49 in WNW 10.4 mph 18 mph 81.4% 0.00 in 46 W/m2
06:24 45.1 °F 40.4 °F 29.49 in WNW 14.9 mph 27 mph 80.6% 0.00 in 47 W/m2
06:29 45.3 °F 40.5 °F 29.49 in WNW 14.4 mph 22 mph 80% 0.00 in 62 W/m2
06:34 45.3 °F 40.5 °F 29.49 in WNW 10.2 mph 17 mph 80% 0.00 in 79 W/m2
06:39 45.3 °F 40.5 °F 29.50 in WNW 9.2 mph 18 mph 80% 0.00 in 74 W/m2
06:44 45.4 °F 40.7 °F 29.50 in West 7.9 mph 17 mph 81% 0.00 in 79 W/m2
06:49 45.5 °F 40.8 °F 29.51 in WNW 10.9 mph 22 mph 81% 0.00 in 76 W/m2
06:54 45.6 °F 40.8 °F 29.51 in WNW 12.4 mph 22 mph 80.6% 0.00 in 63 W/m2
06:59 45.7 °F 40.7 °F 29.51 in WNW 10.6 mph 23 mph 79.8% 0.00 in 77 W/m2
07:04 45.7 °F 40.5 °F 29.51 in WNW 9.6 mph 16 mph 79% 0.00 in 91 W/m2
07:09 45.8 °F 40.5 °F 29.51 in WNW 9.8 mph 22 mph 79% 0.00 in 135 W/m2
07:14 45.9 °F 40.7 °F 29.52 in WNW 10.7 mph 19 mph 79% 0.00 in 151 W/m2
07:19 46.1 °F 40.9 °F 29.52 in WNW 10.7 mph 24 mph 79% 0.00 in 169 W/m2
07:24 46.2 °F 41 °F 29.52 in West 13 mph 20 mph 79% 0.00 in 183 W/m2
07:29 46.2 °F 41 °F 29.53 in WNW 11.2 mph 24 mph 79% 0.00 in 218 W/m2
07:33 46.2 °F 41 °F 29.52 in WNW 10.3 mph 24 mph 79% 0.00 in 220 W/m2
07:39 46.3 °F 41.1 °F 29.53 in WNW 10.4 mph 18 mph 79% 0.00 in 281 W/m2
07:44 46.6 °F 41.4 °F 29.53 in West 10.2 mph 18 mph 79% 0.00 in 244 W/m2
07:49 46.8 °F 41.5 °F 29.54 in WNW 8.7 mph 18 mph 79% 0.00 in 232 W/m2
07:54 46.6 °F 41.4 °F 29.54 in WNW 11.2 mph 21 mph 79% 0.00 in 151 W/m2
07:59 46.6 °F 41.1 °F 29.54 in WNW 10.3 mph 21 mph 78.2% 0.00 in 146 W/m2
08:04 46.8 °F 41.3 °F 29.54 in WNW 10 mph 17 mph 78.4% 0.00 in 341 W/m2
08:09 47 °F 41.4 °F 29.54 in WNW 11.1 mph 22 mph 78% 0.00 in 367 W/m2
08:14 47.1 °F 41.3 °F 29.55 in WNW 11.8 mph 23 mph 77.2% 0.00 in 220 W/m2
08:19 47.1 °F 41.2 °F 29.55 in WNW 12 mph 24 mph 77% 0.00 in 176 W/m2
08:24 47.1 °F 41.2 °F 29.56 in West 15.6 mph 21 mph 77% 0.00 in 160 W/m2
08:29 47 °F 41.1 °F 29.56 in WNW 12.4 mph 24 mph 77% 0.00 in 174 W/m2
08:34 47.1 °F 41 °F 29.56 in WNW 11.5 mph 24 mph 76.6% 0.00 in 176 W/m2
08:39 47.2 °F 41 °F 29.57 in WNW 11.4 mph 21 mph 76.2% 0.00 in 455 W/m2
08:44 47.5 °F 41.2 °F 29.57 in WNW 11.2 mph 18 mph 76% 0.00 in 236 W/m2
08:49 47.7 °F 41.2 °F 29.57 in WNW 15 mph 28 mph 75.6% 0.00 in 236 W/m2
08:54 47.7 °F 41 °F 29.57 in WNW 9.6 mph 28 mph 75% 0.00 in 214 W/m2
08:59 47.8 °F 41.2 °F 29.57 in WNW 8.6 mph 19 mph 75.2% 0.00 in 193 W/m2
09:04 47.7 °F 41 °F 29.58 in NW 12.7 mph 26 mph 74.8% 0.00 in 181 W/m2
09:09 47.7 °F 41 °F 29.58 in WNW 9.4 mph 26 mph 75% 0.00 in 200 W/m2
09:14 47.7 °F 41 °F 29.58 in WNW 14.8 mph 22 mph 75% 0.00 in 218 W/m2
09:19 47.7 °F 40.7 °F 29.59 in WNW 14.2 mph 27 mph 74.2% 0.00 in 345 W/m2
09:24 47.7 °F 40.7 °F 29.59 in West 13.8 mph 23 mph 74% 0.00 in 244 W/m2
09:29 47.8 °F 40.8 °F 29.59 in West 12.3 mph 21 mph 74% 0.00 in 225 W/m2
09:34 47.9 °F 40.9 °F 29.59 in WNW 8.4 mph 19 mph 74% 0.00 in 192 W/m2
09:39 48.3 °F 41.5 °F 29.59 in NW 9.4 mph 17 mph 74.8% 0.00 in 301 W/m2
09:44 48.1 °F 41.1 °F 29.59 in WNW 15 mph 26 mph 74% 0.00 in 209 W/m2
09:49 48 °F 41.2 °F 29.60 in West 12.4 mph 19 mph 74.4% 0.00 in 183 W/m2
09:54 47.8 °F 41.2 °F 29.60 in WNW 11.4 mph 21 mph 75% 0.00 in 174 W/m2
09:59 47.7 °F 41.3 °F 29.60 in West 14.2 mph 21 mph 75.8% 0.00 in 244 W/m2
10:04 47.7 °F 41 °F 29.60 in WNW 11.7 mph 22 mph 75% 0.00 in 292 W/m2
10:09 48 °F 41.4 °F 29.61 in NW 7.6 mph 18 mph 75.2% 0.00 in 258 W/m2
10:14 48.7 °F 42 °F 29.61 in NW 9.6 mph 24 mph 75% 0.00 in 323 W/m2
10:19 48.7 °F 41.5 °F 29.61 in WNW 10.5 mph 21 mph 73.4% 0.00 in 884 W/m2
10:24 49.2 °F 42.1 °F 29.61 in WNW 8.2 mph 15 mph 73.8% 0.00 in 316 W/m2
10:29 49.2 °F 41.6 °F 29.61 in WNW 12 mph 27 mph 72.4% 0.00 in 227 W/m2
10:34 49 °F 41 °F 29.62 in WNW 12.6 mph 23 mph 71.4% 0.00 in 236 W/m2
10:39 48.7 °F 40.6 °F 29.62 in WNW 13.8 mph 27 mph 71% 0.00 in 248 W/m2
10:44 48.8 °F 40.9 °F 29.62 in WNW 13.8 mph 29 mph 71.4% 0.00 in 371 W/m2
10:49 48.7 °F 40 °F 29.62 in WNW 15.6 mph 29 mph 69.2% 0.00 in 371 W/m2
10:54 49.3 °F 40.5 °F 29.62 in WNW 14.4 mph 28 mph 69.2% 0.00 in 399 W/m2
10:59 49.3 °F 40.2 °F 29.63 in WNW 14.4 mph 23 mph 68.2% 0.00 in 304 W/m2
11:04 49.5 °F 40.5 °F 29.63 in WNW 15.5 mph 24 mph 68.5% 0.00 in 304 W/m2
11:09 49.5 °F 40.3 °F 29.63 in WNW 12.2 mph 26 mph 68% 0.00 in 279 W/m2
11:13 49.5 °F 40.4 °F 29.63 in WNW 11.3 mph 25 mph 68.3% 0.00 in 279 W/m2
11:19 49.5 °F 40.4 °F 29.63 in WNW 13 mph 23 mph 68% 0.00 in 325 W/m2
11:24 49.5 °F 40.4 °F 29.64 in West 10.8 mph 20 mph 68% 0.00 in 378 W/m2
11:29 49.6 °F 40.4 °F 29.64 in WNW 14.8 mph 24 mph 68% 0.00 in 425 W/m2
11:34 49.8 °F 40.2 °F 29.64 in NW 14 mph 24 mph 67.2% 0.00 in 434 W/m2
11:38 50.1 °F 40.3 °F 29.64 in WNW 10.3 mph 20 mph 67% 0.00 in 350 W/m2
11:44 50.3 °F 40.3 °F 29.64 in NW 8.6 mph 22 mph 66.2% 0.00 in 350 W/m2
11:49 50.5 °F 40.5 °F 29.65 in NW 9.4 mph 17 mph 66% 0.00 in 367 W/m2
11:54 50.6 °F 40.2 °F 29.65 in NW 11.4 mph 23 mph 65.2% 0.00 in 357 W/m2
11:59 50.4 °F 39.7 °F 29.65 in WNW 13.7 mph 23 mph 64.2% 0.00 in 357 W/m2
12:04 50 °F 39.3 °F 29.65 in NW 11.8 mph 23 mph 64.2% 0.00 in 276 W/m2
12:09 49.8 °F 39.9 °F 29.65 in WNW 9.9 mph 22 mph 66.4% 0.00 in 294 W/m2
12:14 50 °F 40.1 °F 29.65 in WNW 10 mph 18 mph 66.6% 0.00 in 374 W/m2
12:19 50.5 °F 39.7 °F 29.65 in WNW 10.4 mph 19 mph 64% 0.00 in 374 W/m2
12:23 51 °F 39.6 °F 29.65 in WNW 13.6 mph 18 mph 63% 0.00 in 350 W/m2
12:29 50.9 °F 39.2 °F 29.66 in WNW 11.4 mph 24 mph 62% 0.00 in 965 W/m2
12:34 51.7 °F 39.5 °F 29.66 in WNW 10.5 mph 19 mph 61% 0.00 in 1032 W/m2
12:39 51.5 °F 39 °F 29.66 in WNW 12.4 mph 22 mph 60.4% 0.00 in 362 W/m2
12:44 50.7 °F 38.8 °F 29.66 in NW 11.2 mph 30 mph 61.4% 0.00 in 299 W/m2
12:49 50.8 °F 38.6 °F 29.66 in NW 16 mph 23 mph 60.8% 0.00 in 1018 W/m2
12:54 51.4 °F 38.4 °F 29.66 in NW 13.2 mph 24 mph 59% 0.00 in 316 W/m2
12:59 51.6 °F 38.5 °F 29.66 in NW 12.2 mph 25 mph 58.6% 0.00 in 1141 W/m2
13:04 51.6 °F 38.2 °F 29.66 in WNW 12 mph 22 mph 58.2% 0.00 in 1005 W/m2
13:09 51.3 °F 38 °F 29.66 in WNW 11.9 mph 24 mph 58.4% 0.00 in 220 W/m2
13:14 51 °F 38.2 °F 29.66 in WNW 8 mph 21 mph 59.6% 0.00 in 223 W/m2
13:19 51.1 °F 38.7 °F 29.66 in WNW 8.6 mph 21 mph 60.4% 0.00 in 241 W/m2
13:24 51.4 °F 38.5 °F 29.66 in WNW 10.8 mph 18 mph 59.2% 0.00 in 311 W/m2
13:29 51.6 °F 38.8 °F 29.66 in WNW 12.6 mph 29 mph 59.4% 0.00 in 297 W/m2
13:33 51.2 °F 38.2 °F 29.66 in WNW 13.3 mph 24 mph 59% 0.00 in 940 W/m2
13:39 51.5 °F 38.1 °F 29.66 in WNW 12.4 mph 25 mph 58.2% 0.00 in 949 W/m2
13:44 52.1 °F 37.1 °F 29.66 in WNW 13.3 mph 26 mph 54.6% 0.00 in 1041 W/m2
13:49 53 °F 38.2 °F 29.66 in WNW 13 mph 22 mph 55.3% 0.00 in 1037 W/m2
13:54 52.3 °F 37.9 °F 29.66 in NW 12.9 mph 23 mph 56% 0.00 in 223 W/m2
13:59 51.2 °F 37.6 °F 29.66 in NW 10.6 mph 20 mph 57.6% 0.00 in 172 W/m2
14:04 50.7 °F 36.8 °F 29.67 in NW 14.6 mph 22 mph 56.8% 0.00 in 919 W/m2
14:09 51.2 °F 36.9 °F 29.67 in WNW 10.2 mph 19 mph 56% 0.00 in 958 W/m2
14:14 52.2 °F 37.8 °F 29.67 in WNW 12.6 mph 22 mph 56% 0.00 in 886 W/m2
14:19 52.5 °F 37.6 °F 29.66 in NW 13 mph 25 mph 54.8% 0.00 in 942 W/m2
14:24 53.5 °F 38.8 °F 29.67 in WNW 10.2 mph 20 mph 55.4% 0.00 in 942 W/m2
14:29 53.1 °F 38.1 °F 29.67 in WNW 9.8 mph 19 mph 55% 0.00 in 381 W/m2
14:34 53.4 °F 37.8 °F 29.67 in WNW 13.4 mph 24 mph 53.6% 0.00 in 1025 W/m2
14:39 52.9 °F 37.2 °F 29.67 in WNW 15.2 mph 20 mph 53.2% 0.00 in 243 W/m2
14:44 51.7 °F 37.4 °F 29.67 in NW 14.4 mph 24 mph 56.4% 0.00 in 257 W/m2
14:49 50.2 °F 38.8 °F 29.68 in WNW 13 mph 26 mph 62.8% 0.00 in 381 W/m2
14:54 49.8 °F 39.8 °F 29.68 in WNW 10.8 mph 21 mph 66.4% 0.00 in 571 W/m2
14:59 50.4 °F 39.3 °F 29.67 in WNW 9.4 mph 18 mph 63.4% 0.00 in 893 W/m2
15:04 51.2 °F 39.3 °F 29.68 in WNW 9.2 mph 18 mph 61.4% 0.00 in 814 W/m2
15:09 51.4 °F 38.7 °F 29.67 in WNW 10 mph 20 mph 59.8% 0.00 in 754 W/m2
15:14 51.4 °F 39.4 °F 29.68 in West 10 mph 23 mph 61% 0.00 in 969 W/m2
15:19 51.7 °F 39.7 °F 29.68 in West 10 mph 19 mph 61.2% 0.00 in 958 W/m2
15:24 51.8 °F 39 °F 29.68 in WNW 13.6 mph 21 mph 59.4% 0.00 in 788 W/m2
15:29 52.1 °F 39 °F 29.67 in WNW 8.8 mph 21 mph 59% 0.00 in 925 W/m2
15:34 52.6 °F 38.7 °F 29.67 in West 11.6 mph 21 mph 57.2% 0.00 in 925 W/m2
15:39 52.1 °F 38.2 °F 29.68 in WNW 15.2 mph 25 mph 56.8% 0.00 in 262 W/m2
15:44 51.6 °F 38.4 °F 29.68 in WNW 12.2 mph 29 mph 58.6% 0.00 in 367 W/m2
15:49 51.5 °F 38.9 °F 29.68 in West 12.2 mph 24 mph 60% 0.00 in 367 W/m2
15:54 50.5 °F 39 °F 29.68 in WNW 15.8 mph 29 mph 62.4% 0.00 in 345 W/m2
15:59 50.4 °F 40.2 °F 29.68 in WNW 8.2 mph 29 mph 65.8% 0.00 in 872 W/m2
16:04 51.1 °F 40.6 °F 29.68 in WNW 10.6 mph 20 mph 65% 0.00 in 777 W/m2
16:09 50.6 °F 40.6 °F 29.69 in WNW 10 mph 19 mph 66% 0.00 in 118 W/m2
16:14 49.6 °F 40.4 °F 29.69 in WNW 16.3 mph 29 mph 68% 0.00 in 216 W/m2
16:19 48.5 °F 40 °F 29.69 in West 8.8 mph 21 mph 69.8% 0.00 in 751 W/m2
16:24 49.3 °F 40.7 °F 29.69 in WNW 8.6 mph 17 mph 69.4% 0.00 in 708 W/m2
16:29 50.7 °F 40.8 °F 29.69 in WNW 9.2 mph 17 mph 66.6% 0.00 in 671 W/m2
16:34 50.6 °F 39.9 °F 29.69 in WNW 11.1 mph 19 mph 64.2% 0.00 in 225 W/m2
16:39 50.4 °F 39.9 °F 29.69 in NW 12 mph 21 mph 65% 0.00 in 207 W/m2
16:44 49.5 °F 39 °F 29.70 in NW 12.4 mph 28 mph 64.8% 0.00 in 241 W/m2
16:49 48.7 °F 38.4 °F 29.70 in WNW 14.1 mph 28 mph 65.3% 0.00 in 193 W/m2
16:54 47.4 °F 39.3 °F 29.71 in WNW 9.8 mph 26 mph 70.8% 0.00 in 248 W/m2
16:59 47 °F 39.2 °F 29.70 in WNW 9.2 mph 14 mph 71.8% 0.00 in 640 W/m2
17:04 48 °F 39.4 °F 29.70 in WNW 6.8 mph 16 mph 69.4% 0.00 in 605 W/m2
17:09 49.3 °F 38.9 °F 29.69 in WNW 12.3 mph 20 mph 65% 0.00 in 533 W/m2
17:14 50 °F 38.2 °F 29.69 in NW 11.6 mph 21 mph 61.6% 0.00 in 515 W/m2
17:19 50.8 °F 38.1 °F 29.69 in NW 8.1 mph 16 mph 59.6% 0.00 in 501 W/m2
17:24 51.3 °F 37.9 °F 29.69 in NW 9.8 mph 20 mph 58% 0.00 in 489 W/m2
17:29 51.3 °F 37.5 °F 29.69 in WNW 13 mph 23 mph 57.2% 0.00 in 487 W/m2
17:34 51.1 °F 37.4 °F 29.69 in WNW 12.4 mph 19 mph 57.6% 0.00 in 487 W/m2
17:39 50.4 °F 37.2 °F 29.70 in NW 11.3 mph 23 mph 58.4% 0.00 in 429 W/m2
17:44 50 °F 37.7 °F 29.70 in NW 10.6 mph 19 mph 60.4% 0.00 in 188 W/m2
17:49 49.5 °F 38.6 °F 29.70 in WNW 10.7 mph 19 mph 63.8% 0.00 in 130 W/m2
17:54 48.9 °F 38.4 °F 29.70 in NW 11.4 mph 22 mph 64.6% 0.00 in 130 W/m2
17:59 48.6 °F 38.1 °F 29.70 in WNW 12.8 mph 22 mph 65% 0.00 in 98 W/m2
18:04 48.5 °F 38.8 °F 29.70 in WNW 9.5 mph 16 mph 66.8% 0.00 in 424 W/m2
18:09 48.6 °F 39.7 °F 29.70 in West 8.8 mph 14 mph 69% 0.00 in 397 W/m2
18:14 48.6 °F 39.9 °F 29.69 in WNW 6.9 mph 15 mph 69.4% 0.00 in 359 W/m2
18:19 48.8 °F 40 °F 29.69 in WNW 9.4 mph 16 mph 69% 0.00 in 345 W/m2
18:24 49.3 °F 40 °F 29.69 in WNW 8.8 mph 16 mph 67.8% 0.00 in 330 W/m2
18:29 49.6 °F 38.7 °F 29.69 in NW 13.1 mph 19 mph 63.8% 0.00 in 315 W/m2
18:34 49.8 °F 38.1 °F 29.69 in NW 6.9 mph 19 mph 62% 0.00 in 302 W/m2
18:39 49.6 °F 38.2 °F 29.70 in WNW 8.3 mph 18 mph 62.4% 0.00 in 302 W/m2
18:44 49.1 °F 37.8 °F 29.70 in WNW 8.2 mph 18 mph 62.8% 0.00 in 60 W/m2
18:49 48.7 °F 37.8 °F 29.69 in WNW 8.6 mph 21 mph 63.8% 0.00 in 102 W/m2
18:54 48.8 °F 38 °F 29.69 in West 8.4 mph 19 mph 64% 0.00 in 246 W/m2
18:59 48.9 °F 38 °F 29.69 in West 13.8 mph 20 mph 63.8% 0.00 in 227 W/m2
19:04 48.8 °F 38.1 °F 29.69 in WNW 11.8 mph 24 mph 64.2% 0.00 in 197 W/m2
19:09 48.7 °F 37.9 °F 29.70 in WNW 11 mph 19 mph 64% 0.00 in 183 W/m2
19:14 48.6 °F 38 °F 29.69 in WNW 11.8 mph 21 mph 64.4% 0.00 in 158 W/m2
19:19 48.4 °F 38.3 °F 29.70 in WNW 12.6 mph 18 mph 65.6% 0.00 in 149 W/m2
19:24 48.2 °F 38.3 °F 29.70 in WNW 9.2 mph 17 mph 66% 0.00 in 54 W/m2
19:29 47.7 °F 38.3 °F 29.70 in WNW 5.8 mph 17 mph 67.2% 0.00 in 76 W/m2
19:34 47.7 °F 38.5 °F 29.70 in West 7.6 mph 17 mph 68% 0.00 in 97 W/m2
19:39 47.7 °F 38.5 °F 29.70 in WNW 7.6 mph 14 mph 68% 0.00 in 25 W/m2
19:44 47.7 °F 38.5 °F 29.70 in West 7.8 mph 13 mph 68% 0.00 in 39 W/m2
19:49 47.7 °F 38.8 °F 29.70 in WNW 5.3 mph 11 mph 69% 0.00 in 56 W/m2
19:54 47.9 °F 39.1 °F 29.70 in WNW 5.6 mph 11 mph 69% 0.00 in 70 W/m2
19:59 48.1 °F 39.3 °F 29.71 in West 4 mph 9 mph 69% 0.00 in 51 W/m2
20:04 48.1 °F 39.3 °F 29.71 in WNW 5.8 mph 9 mph 69% 0.00 in 46 W/m2
20:09 47.9 °F 39.3 °F 29.71 in WNW 5.5 mph 11 mph 69.4% 0.00 in 37 W/m2
20:14 47.7 °F 39 °F 29.71 in WNW 6.4 mph 12 mph 69.5% 0.00 in 30 W/m2
20:19 47.7 °F 38.7 °F 29.71 in WNW 6.8 mph 17 mph 68.6% 0.00 in 21 W/m2
20:24 47.7 °F 37.8 °F 29.71 in WNW 7.8 mph 17 mph 66% 0.00 in 18 W/m2
20:29 47.4 °F 37.5 °F 29.71 in NW 6.6 mph 14 mph 66% 0.00 in 9 W/m2
20:34 47 °F 37.4 °F 29.71 in WNW 7.9 mph 12 mph 66.6% 0.00 in 7 W/m2
20:39 46.8 °F 37.2 °F 29.71 in NW 7.3 mph 12 mph 67% 0.00 in 5 W/m2
20:44 46.6 °F 37.3 °F 29.71 in NW 3.9 mph 12 mph 67.6% 0.00 in 0 W/m2
20:49 46.5 °F 37.3 °F 29.72 in NW 4.4 mph 10 mph 68% 0.00 in 0 W/m2
20:54 46.2 °F 37.4 °F 29.72 in NW 4.2 mph 10 mph 69% 0.00 in 0 W/m2
20:59 46.2 °F 37.4 °F 29.72 in NW 4.1 mph 9 mph 69% 0.00 in 0 W/m2
21:04 46.2 °F 37.7 °F 29.72 in WNW 5.3 mph 12 mph 69.8% 0.00 in 0 W/m2
21:09 46.2 °F 37.7 °F 29.72 in NW 6.4 mph 13 mph 69.8% 0.00 in 0 W/m2
21:14 46.1 °F 37.6 °F 29.72 in NW 7.4 mph 17 mph 69.8% 0.00 in 0 W/m2
21:19 46 °F 36.9 °F 29.73 in NW 11.6 mph 19 mph 68.3% 0.00 in 0 W/m2
21:24 45.7 °F 36.5 °F 29.73 in NW 8.7 mph 17 mph 68% 0.00 in 0 W/m2
21:29 45.6 °F 36.5 °F 29.73 in NW 10.3 mph 18 mph 68% 0.00 in 0 W/m2
21:34 45.3 °F 36.3 °F 29.73 in NW 8 mph 18 mph 68% 0.00 in 0 W/m2
21:39 45.2 °F 36.2 °F 29.73 in WNW 9.6 mph 17 mph 68% 0.00 in 0 W/m2
21:44 45 °F 36.2 °F 29.74 in NW 9.6 mph 18 mph 68.6% 0.00 in 0 W/m2
21:49 44.8 °F 36.2 °F 29.73 in WNW 8 mph 18 mph 69.2% 0.00 in 0 W/m2
21:54 44.7 °F 36.5 °F 29.74 in NW 10.7 mph 17 mph 70.2% 0.00 in 0 W/m2
21:59 44.4 °F 36.5 °F 29.74 in NW 8.1 mph 14 mph 71% 0.00 in 0 W/m2
22:04 44.2 °F 36.5 °F 29.74 in NW 5.3 mph 14 mph 71.6% 0.00 in 0 W/m2
22:09 44.1 °F 36.5 °F 29.74 in NW 6.2 mph 14 mph 72% 0.00 in 0 W/m2
22:14 43.9 °F 36.5 °F 29.74 in WNW 5.9 mph 10 mph 72.4% 0.00 in 0 W/m2
22:18 43.8 °F 36.7 °F 29.74 in WNW 5.3 mph 9 mph 73% 0.00 in 0 W/m2
22:24 43.6 °F 36.4 °F 29.74 in NW 5.2 mph 9 mph 73% 0.00 in 0 W/m2
22:29 43.5 °F 36.3 °F 29.74 in NW 3.8 mph 9 mph 73% 0.00 in 0 W/m2
22:34 43.5 °F 36.7 °F 29.74 in NW 5.1 mph 9 mph 74% 0.00 in 0 W/m2
22:39 43.5 °F 36.7 °F 29.75 in NW 4.4 mph 7 mph 74% 0.00 in 0 W/m2
22:44 43.5 °F 36.7 °F 29.74 in NW 4.9 mph 10 mph 74% 0.00 in 0 W/m2
22:49 43.5 °F 36.7 °F 29.75 in NW 4.8 mph 10 mph 74% 0.00 in 0 W/m2
22:54 43.7 °F 37.1 °F 29.75 in WNW 7.2 mph 18 mph 74.6% 0.00 in 0 W/m2
22:59 43.5 °F 37.5 °F 29.75 in NW 6.2 mph 12 mph 76.2% 0.00 in 0 W/m2
23:04 43.3 °F 37.5 °F 29.75 in NW 6.5 mph 15 mph 77% 0.00 in 0 W/m2
23:09 43.1 °F 37.4 °F 29.75 in WNW 6.7 mph 14 mph 77.4% 0.00 in 0 W/m2
23:14 43 °F 37.4 °F 29.75 in NW 6.6 mph 14 mph 78% 0.00 in 0 W/m2
23:19 42.6 °F 37 °F 29.75 in NW 6 mph 15 mph 78% 0.00 in 0 W/m2
23:24 42.5 °F 36.9 °F 29.75 in NW 8 mph 14 mph 78% 0.00 in 0 W/m2
23:29 42.3 °F 36.9 °F 29.75 in NW 6.2 mph 14 mph 78.4% 0.00 in 0 W/m2
23:34 42.1 °F 36.9 °F 29.75 in WNW 5.3 mph 10 mph 79% 0.00 in 0 W/m2
23:39 41.9 °F 36.7 °F 29.75 in WNW 4.4 mph 9 mph 79% 0.00 in 0 W/m2
23:44 41.6 °F 36.8 °F 29.75 in WNW 3.8 mph 7 mph 80% 0.00 in 0 W/m2
23:49 41.4 °F 36.6 °F 29.75 in WNW 4.3 mph 8 mph 80% 0.00 in 0 W/m2
23:54 41.2 °F 36.5 °F 29.75 in WNW 3.2 mph 5 mph 80.4% 0.00 in 0 W/m2
23:59 41 °F 36.6 °F 29.75 in WNW 3.2 mph 5 mph 81.4% 0.00 in 0 W/m2
Bath Spa Weather
Compliments of Weather Underground - 2 mb